createdAt,value
2022-12-11T00:00:55.252Z,6.60
2022-12-11T00:03:41.668Z,5.80
2022-12-11T00:06:10.675Z,6.15
2022-12-11T00:08:38.438Z,5.90
2022-12-11T00:11:08.270Z,7.60
2022-12-11T00:13:35.676Z,6.88
2022-12-11T00:16:02.561Z,7.53
2022-12-11T00:18:29.591Z,5.57
2022-12-11T00:21:01.481Z,7.53
2022-12-11T00:23:28.822Z,5.90
2022-12-11T00:25:55.560Z,7.72
2022-12-11T00:28:22.623Z,6.88
2022-12-11T00:30:50.028Z,8.55
2022-12-11T00:33:17.564Z,7.25
2022-12-11T00:35:47.044Z,8.50
2022-12-11T00:38:16.843Z,7.82
2022-12-11T00:40:44.266Z,8.57
2022-12-11T00:43:11.685Z,7.15
2022-12-11T00:45:41.094Z,7.45
2022-12-11T00:48:09.040Z,7.60
2022-12-11T00:50:36.431Z,7.07
2022-12-11T00:53:05.077Z,7.47
2022-12-11T00:55:36.071Z,7.35
2022-12-11T00:58:03.203Z,6.85
2022-12-11T01:00:29.973Z,7.00
2022-12-11T01:02:57.136Z,7.90
2022-12-11T01:05:23.929Z,7.38
2022-12-11T01:07:51.072Z,7.57
2022-12-11T01:10:26.964Z,7.57
2022-12-11T01:12:57.281Z,6.68
2022-12-11T01:15:29.144Z,7.15
2022-12-11T01:17:56.881Z,8.00
2022-12-11T01:20:25.403Z,6.63
2022-12-11T01:22:54.966Z,7.22
2022-12-11T01:25:22.355Z,5.50
2022-12-11T01:27:53.660Z,6.20
2022-12-11T01:30:22.491Z,7.20
2022-12-11T01:32:49.927Z,6.53
2022-12-11T01:35:17.712Z,7.55
2022-12-11T01:37:45.743Z,6.97
2022-12-11T01:40:15.941Z,6.35
2022-12-11T01:42:43.043Z,5.82
2022-12-11T01:45:40.365Z,5.53
2022-12-11T01:48:17.734Z,6.43
2022-12-11T01:50:54.673Z,6.13
2022-12-11T01:53:29.810Z,6.53
2022-12-11T01:55:58.751Z,5.35
2022-12-11T01:58:33.499Z,4.90
2022-12-11T02:01:02.643Z,5.65
2022-12-11T02:03:29.670Z,5.50
2022-12-11T02:06:00.399Z,6.13
2022-12-11T02:08:27.490Z,6.57
2022-12-11T02:10:54.247Z,5.30
2022-12-11T02:13:51.245Z,5.78
2022-12-11T02:16:21.021Z,5.57
2022-12-11T02:19:02.917Z,4.53
2022-12-11T02:21:41.159Z,5.63
2022-12-11T02:24:32.290Z,5.40
2022-12-11T02:26:58.991Z,5.13
2022-12-11T02:30:08.633Z,5.07
2022-12-11T02:32:41.082Z,4.25
2022-12-11T02:35:15.291Z,5.10
2022-12-11T02:37:45.093Z,5.57
2022-12-11T02:40:16.922Z,4.68
2022-12-11T02:42:47.596Z,5.20
2022-12-11T02:45:16.770Z,4.35
2022-12-11T02:47:46.182Z,3.90
2022-12-11T02:50:18.173Z,4.15
2022-12-11T02:52:48.302Z,3.85
2022-12-11T02:55:16.750Z,4.15
2022-12-11T02:57:56.501Z,3.70
2022-12-11T03:00:23.631Z,4.20
2022-12-11T03:02:50.379Z,3.25
2022-12-11T03:05:17.572Z,4.00
2022-12-11T03:07:45.126Z,4.07
2022-12-11T03:10:15.123Z,4.25
2022-12-11T03:12:46.971Z,3.17
2022-12-11T03:15:19.985Z,3.08
2022-12-11T03:18:05.375Z,2.78
2022-12-11T03:20:35.662Z,2.35
2022-12-11T03:23:29.697Z,3.00
2022-12-11T03:26:01.311Z,2.17
2022-12-11T03:28:48.952Z,3.63
2022-12-11T03:31:26.266Z,3.25
2022-12-11T03:33:56.358Z,2.42
2022-12-11T03:36:33.502Z,2.35
2022-12-11T03:39:07.789Z,2.42
2022-12-11T03:41:37.574Z,2.00
2022-12-11T03:44:04.510Z,2.22
2022-12-11T03:46:36.690Z,1.92
2022-12-11T03:49:11.963Z,1.60
2022-12-11T03:51:40.442Z,2.22
2022-12-11T03:54:07.567Z,2.40
2022-12-11T03:56:38.386Z,2.25
2022-12-11T03:59:05.175Z,2.15
2022-12-11T04:01:32.265Z,1.60
2022-12-11T04:04:01.771Z,2.03
2022-12-11T04:06:28.810Z,1.77
2022-12-11T04:08:55.515Z,1.83
2022-12-11T04:11:34.569Z,1.95
2022-12-11T04:14:32.200Z,1.40
2022-12-11T04:17:00.663Z,1.67
2022-12-11T04:19:46.232Z,2.22
2022-12-11T04:22:33.839Z,1.98
2022-12-11T04:25:01.686Z,1.42
2022-12-11T04:27:47.600Z,1.85
2022-12-11T04:30:20.466Z,1.70
2022-12-11T04:32:47.767Z,2.00
2022-12-11T04:35:15.173Z,2.28
2022-12-11T04:37:42.486Z,2.47
2022-12-11T04:40:12.879Z,2.65
2022-12-11T04:42:40.286Z,1.52
2022-12-11T04:45:13.125Z,3.05
2022-12-11T04:47:41.230Z,2.72
2022-12-11T04:50:10.543Z,2.80
2022-12-11T04:52:37.629Z,3.13
2022-12-11T04:55:06.358Z,3.63
2022-12-11T04:57:33.468Z,3.17
2022-12-11T05:00:00.416Z,2.63
2022-12-11T05:02:27.726Z,2.92
2022-12-11T05:04:54.573Z,3.58
2022-12-11T05:07:21.611Z,3.55
2022-12-11T05:09:48.493Z,3.83
2022-12-11T05:12:15.530Z,3.85
2022-12-11T05:14:45.157Z,3.22
2022-12-11T05:17:12.228Z,3.85
2022-12-11T05:19:38.976Z,3.20
2022-12-11T05:22:05.986Z,4.22
2022-12-11T05:24:32.737Z,4.22
2022-12-11T05:26:59.755Z,3.35
2022-12-11T05:29:26.589Z,3.53
2022-12-11T05:31:53.635Z,4.10
2022-12-11T05:34:20.451Z,4.03
2022-12-11T05:36:47.515Z,4.28
2022-12-11T05:39:14.288Z,3.33
2022-12-11T05:41:41.371Z,3.00
2022-12-11T05:44:12.279Z,4.22
2022-12-11T05:46:40.010Z,3.55
2022-12-11T05:49:06.902Z,3.65
2022-12-11T05:51:34.801Z,4.38
2022-12-11T05:54:02.334Z,3.58
2022-12-11T05:56:32.935Z,3.50
2022-12-11T05:59:01.322Z,3.65
2022-12-11T06:01:43.082Z,3.05
2022-12-11T06:04:11.930Z,3.35
2022-12-11T06:06:40.401Z,2.60
2022-12-11T06:09:07.625Z,3.22
2022-12-11T06:11:35.869Z,3.88
2022-12-11T06:14:03.865Z,3.03
2022-12-11T06:16:31.364Z,3.17
2022-12-11T06:18:58.823Z,3.40
2022-12-11T06:21:29.442Z,2.58
2022-12-11T06:23:58.015Z,3.72
2022-12-11T06:26:26.647Z,4.05
2022-12-11T06:28:53.506Z,2.50
2022-12-11T06:31:20.735Z,2.75
2022-12-11T06:33:47.615Z,3.60
2022-12-11T06:36:17.670Z,3.50
2022-12-11T06:38:45.163Z,2.45
2022-12-11T06:41:12.914Z,2.92
2022-12-11T06:43:40.945Z,3.97
2022-12-11T06:46:10.515Z,3.70
2022-12-11T06:48:37.592Z,2.67
2022-12-11T06:51:13.600Z,3.35
2022-12-11T06:53:41.078Z,4.15
2022-12-11T06:56:12.179Z,4.57
2022-12-11T06:58:41.045Z,5.10
2022-12-11T07:01:22.826Z,4.28
2022-12-11T07:03:49.909Z,2.80
2022-12-11T07:06:17.036Z,4.03
2022-12-11T07:08:44.229Z,3.92
2022-12-11T07:11:13.932Z,4.55
2022-12-11T07:13:44.313Z,4.22
2022-12-11T07:16:12.816Z,3.63
2022-12-11T07:18:46.676Z,4.10
2022-12-11T07:21:14.332Z,4.53
2022-12-11T07:23:41.412Z,3.28
2022-12-11T07:26:11.685Z,3.28
2022-12-11T07:28:38.878Z,4.35
2022-12-11T07:31:07.799Z,3.95
2022-12-11T07:33:34.985Z,3.80
2022-12-11T07:36:04.843Z,4.75
2022-12-11T07:38:31.946Z,3.92
2022-12-11T07:41:07.382Z,4.28
2022-12-11T07:43:35.374Z,3.95
2022-12-11T07:46:09.267Z,4.15
2022-12-11T07:48:39.348Z,3.35
2022-12-11T07:51:09.583Z,3.35
2022-12-11T07:53:36.411Z,3.20
2022-12-11T07:56:04.056Z,3.50
2022-12-11T07:58:31.035Z,2.47
2022-12-11T08:00:58.342Z,4.70
2022-12-11T08:03:25.374Z,2.47
2022-12-11T08:05:53.473Z,3.10
2022-12-11T08:08:20.470Z,4.45
2022-12-11T08:10:47.546Z,3.45
2022-12-11T08:13:14.494Z,3.17
2022-12-11T08:15:41.764Z,3.20
2022-12-11T08:18:08.513Z,3.05
2022-12-11T08:20:38.159Z,3.78
2022-12-11T08:23:05.236Z,3.63
2022-12-11T08:25:32.278Z,3.13
2022-12-11T08:27:59.010Z,2.88
2022-12-11T08:30:26.007Z,3.30
2022-12-11T08:32:52.923Z,3.58
2022-12-11T08:35:20.026Z,3.53
2022-12-11T08:37:46.816Z,2.63
2022-12-11T08:40:14.219Z,2.38
2022-12-11T08:42:41.182Z,3.85
2022-12-11T08:45:08.941Z,2.47
2022-12-11T08:47:36.702Z,3.13
2022-12-11T08:50:04.262Z,2.45
2022-12-11T08:52:31.550Z,3.42
2022-12-11T08:54:58.587Z,3.08
2022-12-11T08:57:25.362Z,2.65
2022-12-11T08:59:52.378Z,2.70
2022-12-11T09:02:19.155Z,2.55
2022-12-11T09:04:46.352Z,2.33
2022-12-11T09:07:13.085Z,1.95
2022-12-11T09:09:40.123Z,3.15
2022-12-11T09:12:06.935Z,2.03
2022-12-11T09:14:34.192Z,2.85
2022-12-11T09:17:00.966Z,2.30
2022-12-11T09:19:32.201Z,2.15
2022-12-11T09:21:59.398Z,2.92
2022-12-11T09:24:26.384Z,2.25
2022-12-11T09:26:54.605Z,2.70
2022-12-11T09:29:21.677Z,2.70
2022-12-11T09:31:49.549Z,3.03
2022-12-11T09:34:16.605Z,2.15
2022-12-11T09:36:44.271Z,2.60
2022-12-11T09:39:13.590Z,2.72
2022-12-11T09:41:55.633Z,2.47
2022-12-11T09:44:51.102Z,2.15
2022-12-11T09:47:42.890Z,2.78
2022-12-11T09:50:10.048Z,2.10
2022-12-11T09:52:40.465Z,2.03
2022-12-11T09:55:16.776Z,1.77
2022-12-11T09:58:02.379Z,2.90
2022-12-11T10:00:38.501Z,2.30
2022-12-11T10:03:43.006Z,2.28
2022-12-11T10:06:28.315Z,1.90
2022-12-11T10:09:18.105Z,1.67
2022-12-11T10:11:53.001Z,2.17
2022-12-11T10:14:59.837Z,2.15
2022-12-11T10:17:34.353Z,1.90
2022-12-11T10:20:36.533Z,1.98
2022-12-11T10:23:07.397Z,1.50
2022-12-11T10:25:40.087Z,2.28
2022-12-11T10:28:21.266Z,1.55
2022-12-11T10:30:49.659Z,1.98
2022-12-11T10:33:50.049Z,1.88
2022-12-11T10:36:25.694Z,2.10
2022-12-11T10:38:52.720Z,3.15
2022-12-11T10:41:41.878Z,1.67
2022-12-11T10:44:23.918Z,2.53
2022-12-11T10:47:14.042Z,2.08
2022-12-11T10:49:59.628Z,2.17
2022-12-11T10:52:38.158Z,2.67
2022-12-11T10:55:20.806Z,2.20
2022-12-11T10:57:57.104Z,2.60
2022-12-11T11:00:33.020Z,1.85
2022-12-11T11:03:01.482Z,2.80
2022-12-11T11:05:34.905Z,2.28
2022-12-11T11:08:22.745Z,2.60
2022-12-11T11:10:57.958Z,2.45
2022-12-11T11:13:27.679Z,2.80
2022-12-11T11:16:11.806Z,2.55
2022-12-11T11:18:41.160Z,2.17
2022-12-11T11:21:16.949Z,2.67
2022-12-11T11:23:47.289Z,2.40
2022-12-11T11:26:18.488Z,2.50
2022-12-11T11:28:55.752Z,2.45
2022-12-11T11:31:35.561Z,2.65
2022-12-11T11:34:06.817Z,2.22
2022-12-11T11:36:37.808Z,2.42
2022-12-11T11:39:34.139Z,2.40
2022-12-11T11:42:47.464Z,3.97
2022-12-11T11:45:30.491Z,3.00
2022-12-11T11:48:24.508Z,2.30
2022-12-11T11:50:53.874Z,3.22
2022-12-11T11:53:37.452Z,2.20
2022-12-11T11:56:25.656Z,2.28
2022-12-11T11:59:11.482Z,2.85
2022-12-11T12:01:40.927Z,2.45
2022-12-11T12:04:08.342Z,2.70
2022-12-11T12:06:57.287Z,3.00
2022-12-11T12:09:42.439Z,2.45
2022-12-11T12:12:45.415Z,2.97
2022-12-11T12:15:38.409Z,3.00
2022-12-11T12:18:21.346Z,3.42
2022-12-11T12:21:09.404Z,2.67
2022-12-11T12:23:59.034Z,2.95
2022-12-11T12:26:34.067Z,3.13
2022-12-11T12:29:27.959Z,2.88
2022-12-11T12:31:55.411Z,2.90
2022-12-11T12:34:31.534Z,2.90
2022-12-11T12:37:47.926Z,3.70
2022-12-11T12:40:17.651Z,3.75
2022-12-11T12:42:58.040Z,2.47
2022-12-11T12:45:57.398Z,2.65
2022-12-11T12:48:26.144Z,2.42
2022-12-11T12:50:53.401Z,2.55
2022-12-11T12:53:25.863Z,2.63
2022-12-11T12:55:55.538Z,2.40
2022-12-11T12:58:41.010Z,2.90
2022-12-11T13:01:21.140Z,3.15
2022-12-11T13:03:56.189Z,3.00
2022-12-11T13:06:38.170Z,2.38
2022-12-11T13:09:17.446Z,2.55
2022-12-11T13:11:45.811Z,2.92
2022-12-11T13:14:15.715Z,2.65
2022-12-11T13:16:45.643Z,2.63
2022-12-11T13:19:27.807Z,2.90
2022-12-11T13:22:06.403Z,3.67
2022-12-11T13:24:34.303Z,2.63
2022-12-11T13:27:22.085Z,2.85
2022-12-11T13:29:49.324Z,4.03
2022-12-11T13:32:18.809Z,3.22
2022-12-11T13:35:05.669Z,3.30
2022-12-11T13:37:41.510Z,3.90
2022-12-11T13:40:40.083Z,2.50
2022-12-11T13:43:25.736Z,3.38
2022-12-11T13:45:56.593Z,4.13
2022-12-11T13:48:29.001Z,3.88
2022-12-11T13:50:57.425Z,2.92
2022-12-11T13:53:24.265Z,3.22
2022-12-11T13:56:03.968Z,4.28
2022-12-11T13:58:35.113Z,3.83
2022-12-11T14:01:07.973Z,4.57
2022-12-11T14:03:35.756Z,3.50
2022-12-11T14:06:04.146Z,3.90
2022-12-11T14:08:40.245Z,3.45
2022-12-11T14:11:10.414Z,3.83
2022-12-11T14:13:41.894Z,4.57
2022-12-11T14:16:08.928Z,4.20
2022-12-11T14:18:37.011Z,3.40
2022-12-11T14:21:06.459Z,4.05
2022-12-11T14:23:35.131Z,4.13
2022-12-11T14:26:04.106Z,4.55
2022-12-11T14:28:38.027Z,3.88
2022-12-11T14:31:06.550Z,4.38
2022-12-11T14:33:38.131Z,4.40
2022-12-11T14:36:06.623Z,4.95
2022-12-11T14:38:35.541Z,3.63
2022-12-11T14:41:16.589Z,3.78
2022-12-11T14:43:48.017Z,3.90
2022-12-11T14:46:36.807Z,4.28
2022-12-11T14:49:17.949Z,3.38
2022-12-11T14:51:45.710Z,4.75
2022-12-11T14:54:31.583Z,4.15
2022-12-11T14:57:00.848Z,3.45
2022-12-11T14:59:32.162Z,2.88
2022-12-11T15:02:30.459Z,5.38
2022-12-11T15:05:19.560Z,4.50
2022-12-11T15:08:00.273Z,3.47
2022-12-11T15:10:55.743Z,4.40
2022-12-11T15:13:24.098Z,4.50
2022-12-11T15:15:51.412Z,4.03
2022-12-11T15:18:25.039Z,5.05
2022-12-11T15:20:58.244Z,4.90
2022-12-11T15:23:27.743Z,4.30
2022-12-11T15:26:02.837Z,3.53
2022-12-11T15:28:38.191Z,4.25
2022-12-11T15:31:22.350Z,5.22
2022-12-11T15:33:49.383Z,5.68
2022-12-11T15:36:25.143Z,4.80
2022-12-11T15:38:55.430Z,5.55
2022-12-11T15:41:26.070Z,4.80
2022-12-11T15:43:59.205Z,4.45
2022-12-11T15:46:28.850Z,4.10
2022-12-11T15:48:57.625Z,6.40
2022-12-11T15:51:27.674Z,5.38
2022-12-11T15:53:57.735Z,4.53
2022-12-11T15:56:24.567Z,5.05
2022-12-11T15:58:54.394Z,3.75
2022-12-11T16:01:23.095Z,5.35
2022-12-11T16:03:50.492Z,4.55
2022-12-11T16:06:20.700Z,4.68
2022-12-11T16:08:47.758Z,4.63
2022-12-11T16:11:14.817Z,3.60
2022-12-11T16:13:43.199Z,4.35
2022-12-11T16:16:10.247Z,5.00
2022-12-11T16:18:37.280Z,4.70
2022-12-11T16:21:06.057Z,4.70
2022-12-11T16:23:33.076Z,5.20
2022-12-11T16:26:08.170Z,5.40
2022-12-11T16:28:37.143Z,4.90
2022-12-11T16:31:14.964Z,4.47
2022-12-11T16:33:42.058Z,5.72
2022-12-11T16:36:16.972Z,4.50
2022-12-11T16:38:53.766Z,5.72
2022-12-11T16:41:24.838Z,4.00
2022-12-11T16:43:54.411Z,5.13
2022-12-11T16:46:25.223Z,4.45
2022-12-11T16:48:52.274Z,4.43
2022-12-11T16:51:19.064Z,4.68
2022-12-11T16:53:48.725Z,4.28
2022-12-11T16:56:24.018Z,5.45
2022-12-11T16:58:51.039Z,4.95
2022-12-11T17:01:17.833Z,4.18
2022-12-11T17:03:45.166Z,3.78
2022-12-11T17:06:14.541Z,4.90
2022-12-11T17:08:42.787Z,4.95
2022-12-11T17:11:13.312Z,3.67
2022-12-11T17:13:40.399Z,4.15
2022-12-11T17:16:09.598Z,4.82
2022-12-11T17:18:37.031Z,3.80
2022-12-11T17:21:08.747Z,4.55
2022-12-11T17:23:35.968Z,4.05
2022-12-11T17:26:03.423Z,4.53
2022-12-11T17:28:31.702Z,5.28
2022-12-11T17:30:58.649Z,4.32
2022-12-11T17:33:25.734Z,3.38
2022-12-11T17:35:52.485Z,3.92
2022-12-11T17:38:19.533Z,5.72
2022-12-11T17:40:49.478Z,3.50
2022-12-11T17:43:16.646Z,5.35
2022-12-11T17:45:48.870Z,3.28
2022-12-11T17:48:16.211Z,4.40
2022-12-11T17:50:44.875Z,4.65
2022-12-11T17:53:13.386Z,4.72
2022-12-11T17:55:44.694Z,4.28
2022-12-11T17:58:17.360Z,4.20
2022-12-11T18:00:45.950Z,4.55
2022-12-11T18:03:13.865Z,5.03
2022-12-11T18:05:42.756Z,4.90
2022-12-11T18:08:13.962Z,4.32
2022-12-11T18:10:41.535Z,4.10
2022-12-11T18:13:08.694Z,5.82
2022-12-11T18:15:35.835Z,5.40
2022-12-11T18:18:03.790Z,3.97
2022-12-11T18:20:32.246Z,3.95
2022-12-11T18:23:00.424Z,4.88
2022-12-11T18:25:28.033Z,4.00
2022-12-11T18:27:55.452Z,3.40
2022-12-11T18:30:25.013Z,4.00
2022-12-11T18:32:52.419Z,4.22
2022-12-11T18:35:19.599Z,4.57
2022-12-11T18:37:46.798Z,4.00
2022-12-11T18:40:13.554Z,3.40
2022-12-11T18:42:40.579Z,5.00
2022-12-11T18:45:08.019Z,5.55
2022-12-11T18:47:35.084Z,4.32
2022-12-11T18:50:07.420Z,5.15
2022-12-11T18:52:35.289Z,4.47
2022-12-11T18:55:02.378Z,4.57
2022-12-11T18:57:29.468Z,4.22
2022-12-11T18:59:56.317Z,5.72
2022-12-11T19:02:23.594Z,4.85
2022-12-11T19:04:50.400Z,4.55
2022-12-11T19:07:17.433Z,4.75
2022-12-11T19:09:48.135Z,6.05
2022-12-11T19:12:15.750Z,4.78
2022-12-11T19:14:42.528Z,5.35
2022-12-11T19:17:09.641Z,5.03
2022-12-11T19:19:36.391Z,4.03
2022-12-11T19:22:04.223Z,5.60
2022-12-11T19:24:31.257Z,5.55
2022-12-11T19:26:58.332Z,6.00
2022-12-11T19:29:27.648Z,6.18
2022-12-11T19:31:55.719Z,4.70
2022-12-11T19:34:23.005Z,5.85
2022-12-11T19:36:50.431Z,4.53
2022-12-11T19:39:17.889Z,5.20
2022-12-11T19:41:45.400Z,5.13
2022-12-11T19:44:12.482Z,6.18
2022-12-11T19:46:40.254Z,5.95
2022-12-11T19:49:07.113Z,5.07
2022-12-11T19:51:40.148Z,5.63
2022-12-11T19:54:08.855Z,5.43
2022-12-11T19:56:36.243Z,4.60
2022-12-11T19:59:05.969Z,5.80
2022-12-11T20:01:35.834Z,6.90
2022-12-11T20:04:10.198Z,5.63
2022-12-11T20:06:40.006Z,5.82
2022-12-11T20:09:11.016Z,6.72
2022-12-11T20:11:39.978Z,7.63
2022-12-11T20:14:07.058Z,5.10
2022-12-11T20:17:08.641Z,7.28
2022-12-11T20:19:20.926Z,7.15
2022-12-11T20:21:48.144Z,6.57
2022-12-11T20:24:14.897Z,7.85
2022-12-11T20:26:41.922Z,6.88
2022-12-11T20:29:08.833Z,9.80
2022-12-11T20:31:36.897Z,8.48
2022-12-11T20:34:04.858Z,8.55
2022-12-11T20:36:34.649Z,6.75
2022-12-11T20:39:01.511Z,10.60
2022-12-11T20:41:29.426Z,9.15
2022-12-11T20:43:56.553Z,9.35
2022-12-11T20:46:25.802Z,8.05
2022-12-11T20:48:54.014Z,9.48
2022-12-11T20:51:26.076Z,9.00
2022-12-11T20:53:58.862Z,8.80
2022-12-11T20:56:30.805Z,8.65
2022-12-11T20:58:59.156Z,8.65
2022-12-11T21:01:28.711Z,10.30
2022-12-11T21:03:55.948Z,9.10
2022-12-11T21:06:35.059Z,9.73
2022-12-11T21:09:06.235Z,7.78
2022-12-11T21:11:33.773Z,7.63
2022-12-11T21:14:00.605Z,7.00
2022-12-11T21:16:28.147Z,9.43
2022-12-11T21:18:56.498Z,10.60
2022-12-11T21:21:24.044Z,9.30
2022-12-11T21:23:50.831Z,8.68
2022-12-11T21:26:19.282Z,7.95
2022-12-11T21:28:46.111Z,7.60
2022-12-11T21:31:18.216Z,9.40
2022-12-11T21:33:46.314Z,10.07
2022-12-11T21:36:14.731Z,6.68
2022-12-11T21:38:43.662Z,8.07
2022-12-11T21:41:16.503Z,8.23
2022-12-11T21:44:14.627Z,9.00
2022-12-11T21:46:32.988Z,10.32
2022-12-11T21:48:59.890Z,7.05
2022-12-11T21:51:37.664Z,10.10
2022-12-11T21:54:07.519Z,8.10
2022-12-11T21:56:37.411Z,9.65
2022-12-11T21:59:05.013Z,8.75
2022-12-11T22:01:37.160Z,9.00
2022-12-11T22:04:05.158Z,8.85
2022-12-11T22:06:32.454Z,8.35
2022-12-11T22:08:59.246Z,7.55
2022-12-11T22:11:29.568Z,7.88
2022-12-11T22:13:57.604Z,9.80
2022-12-11T22:16:24.938Z,7.57
2022-12-11T22:18:51.726Z,8.85
2022-12-11T22:21:19.328Z,8.55
2022-12-11T22:23:46.596Z,9.77
2022-12-11T22:26:23.381Z,9.18
2022-12-11T22:28:50.906Z,7.82
2022-12-11T22:31:20.715Z,6.47
2022-12-11T22:33:50.045Z,8.45
2022-12-11T22:36:20.745Z,8.27
2022-12-11T22:38:47.706Z,6.93
2022-12-11T22:41:23.209Z,7.05
2022-12-11T22:43:50.542Z,6.55
2022-12-11T22:46:19.011Z,6.97
2022-12-11T22:48:45.778Z,7.93
2022-12-11T22:51:13.235Z,8.43
2022-12-11T22:53:40.075Z,8.25
2022-12-11T22:56:09.150Z,8.98
2022-12-11T22:58:36.409Z,7.32
2022-12-11T23:01:10.794Z,8.20
2022-12-11T23:03:37.784Z,8.43
2022-12-11T23:06:08.036Z,7.95
2022-12-11T23:08:35.201Z,7.63
2022-12-11T23:11:02.750Z,8.75
2022-12-11T23:13:29.507Z,6.70
2022-12-11T23:15:56.612Z,6.55
2022-12-11T23:18:23.629Z,8.45
2022-12-11T23:20:50.794Z,8.02
2022-12-11T23:23:17.518Z,7.85
2022-12-11T23:25:44.683Z,7.25
2022-12-11T23:28:11.430Z,7.75
2022-12-11T23:30:38.596Z,6.18
2022-12-11T23:33:06.631Z,7.78
2022-12-11T23:35:34.014Z,6.20
2022-12-11T23:38:00.829Z,6.95
2022-12-11T23:40:27.867Z,6.57
2022-12-11T23:42:54.619Z,4.70
2022-12-11T23:45:21.669Z,5.93
2022-12-11T23:47:48.544Z,5.38
2022-12-11T23:50:15.591Z,5.32
2022-12-11T23:52:42.346Z,5.30
2022-12-11T23:55:11.320Z,5.60
2022-12-11T23:57:38.330Z,5.28
